sensor_id;sensor_type;location;lat;lon;timestamp;P1;durP1;ratioP1;P2;durP2;ratioP2
1024;SDS011;501;48.214;11.350;2024-02-21T00:01:17;5.07;;;2.53;;
1024;SDS011;501;48.214;11.350;2024-02-21T00:03:45;5.23;;;2.30;;
1024;SDS011;501;48.214;11.350;2024-02-21T00:06:10;4.20;;;2.20;;
1024;SDS011;501;48.214;11.350;2024-02-21T00:08:36;5.93;;;3.13;;
1024;SDS011;501;48.214;11.350;2024-02-21T00:11:01;6.13;;;2.60;;
1024;SDS011;501;48.214;11.350;2024-02-21T00:13:27;5.60;;;2.40;;
1024;SDS011;501;48.214;11.350;2024-02-21T00:15:53;17.63;;;2.97;;
1024;SDS011;501;48.214;11.350;2024-02-21T00:18:19;9.30;;;2.50;;
1024;SDS011;501;48.214;11.350;2024-02-21T00:20:45;5.03;;;2.37;;
1024;SDS011;501;48.214;11.350;2024-02-21T00:23:10;7.00;;;2.97;;
1024;SDS011;501;48.214;11.350;2024-02-21T00:25:36;3.23;;;2.40;;
1024;SDS011;501;48.214;11.350;2024-02-21T00:28:02;3.80;;;2.33;;
1024;SDS011;501;48.214;11.350;2024-02-21T00:30:28;4.70;;;1.97;;
1024;SDS011;501;48.214;11.350;2024-02-21T00:32:54;3.53;;;2.03;;
1024;SDS011;501;48.214;11.350;2024-02-21T00:35:20;4.63;;;2.20;;
1024;SDS011;501;48.214;11.350;2024-02-21T00:37:45;6.83;;;2.30;;
1024;SDS011;501;48.214;11.350;2024-02-21T00:40:11;7.10;;;2.97;;
1024;SDS011;501;48.214;11.350;2024-02-21T00:42:36;3.70;;;2.47;;
1024;SDS011;501;48.214;11.350;2024-02-21T00:45:02;3.93;;;2.30;;
1024;SDS011;501;48.214;11.350;2024-02-21T00:47:28;3.10;;;1.73;;
1024;SDS011;501;48.214;11.350;2024-02-21T00:49:54;4.70;;;2.37;;
1024;SDS011;501;48.214;11.350;2024-02-21T00:52:20;2.53;;;2.10;;
1024;SDS011;501;48.214;11.350;2024-02-21T00:54:45;7.20;;;2.97;;
1024;SDS011;501;48.214;11.350;2024-02-21T00:57:11;3.60;;;2.10;;
1024;SDS011;501;48.214;11.350;2024-02-21T00:59:37;3.57;;;2.20;;
1024;SDS011;501;48.214;11.350;2024-02-21T01:02:02;5.67;;;2.20;;
1024;SDS011;501;48.214;11.350;2024-02-21T01:04:28;5.10;;;2.10;;
1024;SDS011;501;48.214;11.350;2024-02-21T01:06:54;2.67;;;1.90;;
1024;SDS011;501;48.214;11.350;2024-02-21T01:09:19;2.93;;;2.10;;
1024;SDS011;501;48.214;11.350;2024-02-21T01:11:45;2.73;;;1.93;;
1024;SDS011;501;48.214;11.350;2024-02-21T01:14:10;2.60;;;2.00;;
1024;SDS011;501;48.214;11.350;2024-02-21T01:16:36;3.67;;;1.50;;
1024;SDS011;501;48.214;11.350;2024-02-21T01:19:02;5.17;;;1.97;;
1024;SDS011;501;48.214;11.350;2024-02-21T01:21:27;6.43;;;2.80;;
1024;SDS011;501;48.214;11.350;2024-02-21T01:23:53;4.20;;;2.20;;
1024;SDS011;501;48.214;11.350;2024-02-21T01:26:19;5.00;;;2.23;;
1024;SDS011;501;48.214;11.350;2024-02-21T01:28:44;7.73;;;3.00;;
1024;SDS011;501;48.214;11.350;2024-02-21T01:31:10;2.27;;;2.17;;
1024;SDS011;501;48.214;11.350;2024-02-21T01:33:36;2.03;;;1.67;;
1024;SDS011;501;48.214;11.350;2024-02-21T01:36:04;2.47;;;2.27;;
1024;SDS011;501;48.214;11.350;2024-02-21T01:38:31;2.00;;;1.90;;
1024;SDS011;501;48.214;11.350;2024-02-21T01:40:57;6.20;;;2.10;;
1024;SDS011;501;48.214;11.350;2024-02-21T01:43:23;3.10;;;2.00;;
1024;SDS011;501;48.214;11.350;2024-02-21T01:45:52;3.67;;;2.30;;
1024;SDS011;501;48.214;11.350;2024-02-21T01:48:20;3.50;;;2.40;;
1024;SDS011;501;48.214;11.350;2024-02-21T01:50:48;3.33;;;2.13;;
1024;SDS011;501;48.214;11.350;2024-02-21T01:53:16;2.57;;;2.10;;
1024;SDS011;501;48.214;11.350;2024-02-21T01:55:46;2.70;;;1.90;;
1024;SDS011;501;48.214;11.350;2024-02-21T01:58:13;4.40;;;2.43;;
1024;SDS011;501;48.214;11.350;2024-02-21T02:00:40;4.07;;;2.13;;
1024;SDS011;501;48.214;11.350;2024-02-21T02:03:09;4.80;;;2.03;;
1024;SDS011;501;48.214;11.350;2024-02-21T02:05:41;2.57;;;2.30;;
1024;SDS011;501;48.214;11.350;2024-02-21T02:08:14;2.80;;;2.50;;
1024;SDS011;501;48.214;11.350;2024-02-21T02:10:41;2.67;;;2.27;;
1024;SDS011;501;48.214;11.350;2024-02-21T02:13:07;3.67;;;2.07;;
1024;SDS011;501;48.214;11.350;2024-02-21T02:15:43;3.00;;;2.03;;
1024;SDS011;501;48.214;11.350;2024-02-21T02:18:21;5.63;;;1.90;;
1024;SDS011;501;48.214;11.350;2024-02-21T02:20:47;4.20;;;1.93;;
1024;SDS011;501;48.214;11.350;2024-02-21T02:23:19;2.23;;;2.03;;
1024;SDS011;501;48.214;11.350;2024-02-21T02:25:52;6.73;;;3.13;;
1024;SDS011;501;48.214;11.350;2024-02-21T02:28:18;2.80;;;1.97;;
1024;SDS011;501;48.214;11.350;2024-02-21T02:30:44;2.40;;;2.10;;
1024;SDS011;501;48.214;11.350;2024-02-21T02:33:09;3.97;;;2.10;;
1024;SDS011;501;48.214;11.350;2024-02-21T02:35:35;7.00;;;2.00;;
1024;SDS011;501;48.214;11.350;2024-02-21T02:38:01;2.23;;;2.00;;
1024;SDS011;501;48.214;11.350;2024-02-21T02:40:28;3.40;;;2.10;;
1024;SDS011;501;48.214;11.350;2024-02-21T02:42:54;5.23;;;1.57;;
1024;SDS011;501;48.214;11.350;2024-02-21T02:45:22;3.03;;;1.70;;
1024;SDS011;501;48.214;11.350;2024-02-21T02:47:49;1.90;;;1.60;;
1024;SDS011;501;48.214;11.350;2024-02-21T02:50:15;2.50;;;1.57;;
1024;SDS011;501;48.214;11.350;2024-02-21T02:52:40;5.30;;;2.13;;
1024;SDS011;501;48.214;11.350;2024-02-21T02:55:06;1.80;;;1.70;;
1024;SDS011;501;48.214;11.350;2024-02-21T02:57:32;2.00;;;1.80;;
1024;SDS011;501;48.214;11.350;2024-02-21T02:59:58;3.53;;;2.30;;
1024;SDS011;501;48.214;11.350;2024-02-21T03:02:23;4.83;;;2.17;;
1024;SDS011;501;48.214;11.350;2024-02-21T03:04:49;3.27;;;1.70;;
1024;SDS011;501;48.214;11.350;2024-02-21T03:07:15;4.73;;;1.70;;
1024;SDS011;501;48.214;11.350;2024-02-21T03:09:41;3.10;;;1.77;;
1024;SDS011;501;48.214;11.350;2024-02-21T03:12:08;5.53;;;2.33;;
1024;SDS011;501;48.214;11.350;2024-02-21T03:14:34;4.47;;;1.90;;
1024;SDS011;501;48.214;11.350;2024-02-21T03:17:00;2.97;;;1.70;;
1024;SDS011;501;48.214;11.350;2024-02-21T03:19:26;4.23;;;1.87;;
1024;SDS011;501;48.214;11.350;2024-02-21T03:21:52;3.47;;;1.80;;
1024;SDS011;501;48.214;11.350;2024-02-21T03:24:20;1.53;;;1.43;;
1024;SDS011;501;48.214;11.350;2024-02-21T03:26:46;5.73;;;1.70;;
1024;SDS011;501;48.214;11.350;2024-02-21T03:29:14;4.10;;;1.80;;
1024;SDS011;501;48.214;11.350;2024-02-21T03:31:43;4.37;;;1.63;;
1024;SDS011;501;48.214;11.350;2024-02-21T03:34:11;3.07;;;1.60;;
1024;SDS011;501;48.214;11.350;2024-02-21T03:36:37;2.60;;;1.90;;
1024;SDS011;501;48.214;11.350;2024-02-21T03:39:03;3.23;;;1.80;;
1024;SDS011;501;48.214;11.350;2024-02-21T03:41:29;3.73;;;1.70;;
1024;SDS011;501;48.214;11.350;2024-02-21T03:43:55;1.57;;;1.47;;
1024;SDS011;501;48.214;11.350;2024-02-21T03:46:20;2.20;;;1.83;;
1024;SDS011;501;48.214;11.350;2024-02-21T03:48:46;2.73;;;1.53;;
1024;SDS011;501;48.214;11.350;2024-02-21T03:51:12;1.83;;;1.40;;
1024;SDS011;501;48.214;11.350;2024-02-21T03:53:37;2.33;;;1.80;;
1024;SDS011;501;48.214;11.350;2024-02-21T03:56:03;2.97;;;1.77;;
1024;SDS011;501;48.214;11.350;2024-02-21T03:58:32;2.50;;;1.50;;
1024;SDS011;501;48.214;11.350;2024-02-21T04:01:01;3.13;;;1.63;;
1024;SDS011;501;48.214;11.350;2024-02-21T04:03:27;5.23;;;2.00;;
1024;SDS011;501;48.214;11.350;2024-02-21T04:05:53;1.87;;;1.37;;
1024;SDS011;501;48.214;11.350;2024-02-21T04:08:19;4.47;;;1.77;;
1024;SDS011;501;48.214;11.350;2024-02-21T04:10:44;4.00;;;1.37;;
1024;SDS011;501;48.214;11.350;2024-02-21T04:13:10;4.30;;;1.63;;
1024;SDS011;501;48.214;11.350;2024-02-21T04:15:36;2.10;;;1.70;;
1024;SDS011;501;48.214;11.350;2024-02-21T04:18:02;1.73;;;1.30;;
1024;SDS011;501;48.214;11.350;2024-02-21T04:20:30;6.23;;;1.60;;
1024;SDS011;501;48.214;11.350;2024-02-21T04:22:57;5.03;;;1.40;;
1024;SDS011;501;48.214;11.350;2024-02-21T04:25:23;4.77;;;1.33;;
1024;SDS011;501;48.214;11.350;2024-02-21T04:27:49;2.17;;;1.50;;
1024;SDS011;501;48.214;11.350;2024-02-21T04:30:14;3.13;;;1.50;;
1024;SDS011;501;48.214;11.350;2024-02-21T04:32:40;2.97;;;1.80;;
1024;SDS011;501;48.214;11.350;2024-02-21T04:35:07;1.53;;;1.40;;
1024;SDS011;501;48.214;11.350;2024-02-21T04:37:33;3.50;;;1.73;;
1024;SDS011;501;48.214;11.350;2024-02-21T04:39:59;1.93;;;1.40;;
1024;SDS011;501;48.214;11.350;2024-02-21T04:42:24;2.63;;;1.70;;
1024;SDS011;501;48.214;11.350;2024-02-21T04:44:50;1.43;;;1.33;;
1024;SDS011;501;48.214;11.350;2024-02-21T04:47:16;4.07;;;1.90;;
1024;SDS011;501;48.214;11.350;2024-02-21T04:49:41;4.27;;;1.60;;
1024;SDS011;501;48.214;11.350;2024-02-21T04:52:07;2.67;;;1.60;;
1024;SDS011;501;48.214;11.350;2024-02-21T04:54:33;6.47;;;2.27;;
1024;SDS011;501;48.214;11.350;2024-02-21T04:57:00;2.17;;;1.80;;
1024;SDS011;501;48.214;11.350;2024-02-21T04:59:26;1.50;;;1.33;;
1024;SDS011;501;48.214;11.350;2024-02-21T05:01:51;1.80;;;1.23;;
1024;SDS011;501;48.214;11.350;2024-02-21T05:04:17;2.43;;;1.37;;
1024;SDS011;501;48.214;11.350;2024-02-21T05:06:43;3.50;;;2.10;;
1024;SDS011;501;48.214;11.350;2024-02-21T05:09:09;5.20;;;2.97;;
1024;SDS011;501;48.214;11.350;2024-02-21T05:11:35;3.90;;;3.10;;
1024;SDS011;501;48.214;11.350;2024-02-21T05:14:01;5.53;;;2.37;;
1024;SDS011;501;48.214;11.350;2024-02-21T05:16:27;5.53;;;1.87;;
1024;SDS011;501;48.214;11.350;2024-02-21T05:18:53;3.57;;;1.80;;
1024;SDS011;501;48.214;11.350;2024-02-21T05:21:19;3.30;;;1.43;;
1024;SDS011;501;48.214;11.350;2024-02-21T05:23:44;2.90;;;2.00;;
1024;SDS011;501;48.214;11.350;2024-02-21T05:26:10;1.40;;;1.30;;
1024;SDS011;501;48.214;11.350;2024-02-21T05:28:35;2.53;;;1.40;;
1024;SDS011;501;48.214;11.350;2024-02-21T05:31:01;2.50;;;1.70;;
1024;SDS011;501;48.214;11.350;2024-02-21T05:33:27;3.90;;;1.53;;
1024;SDS011;501;48.214;11.350;2024-02-21T05:35:53;4.47;;;2.70;;
1024;SDS011;501;48.214;11.350;2024-02-21T05:38:18;3.23;;;1.80;;
1024;SDS011;501;48.214;11.350;2024-02-21T05:40:44;5.50;;;1.90;;
1024;SDS011;501;48.214;11.350;2024-02-21T05:43:10;2.10;;;1.73;;
1024;SDS011;501;48.214;11.350;2024-02-21T05:45:35;2.60;;;1.70;;
1024;SDS011;501;48.214;11.350;2024-02-21T05:48:01;2.80;;;2.00;;
1024;SDS011;501;48.214;11.350;2024-02-21T05:50:27;2.77;;;2.10;;
1024;SDS011;501;48.214;11.350;2024-02-21T05:52:56;2.10;;;1.20;;
1024;SDS011;501;48.214;11.350;2024-02-21T05:55:22;1.60;;;1.50;;
1024;SDS011;501;48.214;11.350;2024-02-21T05:57:47;3.87;;;1.63;;
1024;SDS011;501;48.214;11.350;2024-02-21T06:00:13;2.80;;;1.93;;
1024;SDS011;501;48.214;11.350;2024-02-21T06:02:40;2.93;;;2.00;;
1024;SDS011;501;48.214;11.350;2024-02-21T06:05:06;1.17;;;1.07;;
1024;SDS011;501;48.214;11.350;2024-02-21T06:07:33;1.40;;;1.30;;
1024;SDS011;501;48.214;11.350;2024-02-21T06:09:59;1.90;;;0.90;;
1024;SDS011;501;48.214;11.350;2024-02-21T06:12:26;1.23;;;1.00;;
1024;SDS011;501;48.214;11.350;2024-02-21T06:14:52;2.07;;;1.00;;
1024;SDS011;501;48.214;11.350;2024-02-21T06:17:18;1.80;;;1.07;;
1024;SDS011;501;48.214;11.350;2024-02-21T06:19:43;1.10;;;1.00;;
1024;SDS011;501;48.214;11.350;2024-02-21T06:22:09;5.03;;;1.30;;
1024;SDS011;501;48.214;11.350;2024-02-21T06:24:35;1.30;;;1.10;;
1024;SDS011;501;48.214;11.350;2024-02-21T06:27:02;1.90;;;1.20;;
1024;SDS011;501;48.214;11.350;2024-02-21T06:29:33;1.77;;;1.07;;
1024;SDS011;501;48.214;11.350;2024-02-21T06:31:59;2.77;;;1.70;;
1024;SDS011;501;48.214;11.350;2024-02-21T06:34:25;1.63;;;1.03;;
1024;SDS011;501;48.214;11.350;2024-02-21T06:36:51;2.07;;;1.23;;
1024;SDS011;501;48.214;11.350;2024-02-21T06:39:17;2.30;;;1.23;;
1024;SDS011;501;48.214;11.350;2024-02-21T06:41:43;1.80;;;1.27;;
1024;SDS011;501;48.214;11.350;2024-02-21T06:44:08;4.33;;;1.30;;
1024;SDS011;501;48.214;11.350;2024-02-21T06:46:34;2.07;;;0.87;;
1024;SDS011;501;48.214;11.350;2024-02-21T06:49:00;3.10;;;1.90;;
1024;SDS011;501;48.214;11.350;2024-02-21T06:51:26;1.17;;;1.00;;
1024;SDS011;501;48.214;11.350;2024-02-21T06:53:53;1.10;;;1.10;;
1024;SDS011;501;48.214;11.350;2024-02-21T06:56:19;1.23;;;1.00;;
1024;SDS011;501;48.214;11.350;2024-02-21T06:58:45;1.47;;;1.20;;
1024;SDS011;501;48.214;11.350;2024-02-21T07:01:11;1.27;;;1.13;;
1024;SDS011;501;48.214;11.350;2024-02-21T07:03:37;0.97;;;0.93;;
1024;SDS011;501;48.214;11.350;2024-02-21T07:06:03;1.97;;;1.20;;
1024;SDS011;501;48.214;11.350;2024-02-21T07:08:29;1.17;;;1.00;;
1024;SDS011;501;48.214;11.350;2024-02-21T07:10:54;1.50;;;1.37;;
1024;SDS011;501;48.214;11.350;2024-02-21T07:13:20;1.73;;;1.30;;
1024;SDS011;501;48.214;11.350;2024-02-21T07:15:47;2.07;;;1.53;;
1024;SDS011;501;48.214;11.350;2024-02-21T07:18:13;1.60;;;1.43;;
1024;SDS011;501;48.214;11.350;2024-02-21T07:20:39;1.57;;;1.47;;
1024;SDS011;501;48.214;11.350;2024-02-21T07:23:06;2.60;;;1.47;;
1024;SDS011;501;48.214;11.350;2024-02-21T07:25:33;1.03;;;0.93;;
1024;SDS011;501;48.214;11.350;2024-02-21T07:27:59;1.70;;;1.30;;
1024;SDS011;501;48.214;11.350;2024-02-21T07:30:25;1.40;;;1.30;;
1024;SDS011;501;48.214;11.350;2024-02-21T07:32:50;1.73;;;1.30;;
1024;SDS011;501;48.214;11.350;2024-02-21T07:35:19;2.10;;;1.70;;
1024;SDS011;501;48.214;11.350;2024-02-21T07:37:44;1.47;;;1.37;;
1024;SDS011;501;48.214;11.350;2024-02-21T07:40:13;1.57;;;1.47;;
1024;SDS011;501;48.214;11.350;2024-02-21T07:42:40;2.20;;;1.27;;
1024;SDS011;501;48.214;11.350;2024-02-21T07:45:09;2.40;;;1.40;;
1024;SDS011;501;48.214;11.350;2024-02-21T07:47:35;1.33;;;1.17;;
1024;SDS011;501;48.214;11.350;2024-02-21T07:50:02;4.60;;;1.60;;
1024;SDS011;501;48.214;11.350;2024-02-21T07:52:28;1.70;;;1.13;;
1024;SDS011;501;48.214;11.350;2024-02-21T07:54:53;2.60;;;1.87;;
1024;SDS011;501;48.214;11.350;2024-02-21T07:57:19;2.20;;;1.20;;
1024;SDS011;501;48.214;11.350;2024-02-21T07:59:45;1.67;;;1.50;;
1024;SDS011;501;48.214;11.350;2024-02-21T08:02:13;2.00;;;1.20;;
1024;SDS011;501;48.214;11.350;2024-02-21T08:04:42;1.20;;;1.10;;
1024;SDS011;501;48.214;11.350;2024-02-21T08:07:07;1.00;;;1.00;;
1024;SDS011;501;48.214;11.350;2024-02-21T08:09:34;3.07;;;1.53;;
1024;SDS011;501;48.214;11.350;2024-02-21T08:12:00;4.57;;;1.17;;
1024;SDS011;501;48.214;11.350;2024-02-21T08:14:26;1.47;;;1.37;;
1024;SDS011;501;48.214;11.350;2024-02-21T08:16:51;2.57;;;1.40;;
1024;SDS011;501;48.214;11.350;2024-02-21T08:19:20;1.50;;;1.40;;
1024;SDS011;501;48.214;11.350;2024-02-21T08:21:47;1.30;;;1.20;;
1024;SDS011;501;48.214;11.350;2024-02-21T08:24:16;1.97;;;1.10;;
1024;SDS011;501;48.214;11.350;2024-02-21T08:26:42;1.67;;;1.20;;
1024;SDS011;501;48.214;11.350;2024-02-21T08:29:09;1.57;;;0.90;;
1024;SDS011;501;48.214;11.350;2024-02-21T08:31:35;2.20;;;1.37;;
1024;SDS011;501;48.214;11.350;2024-02-21T08:34:01;2.00;;;1.17;;
1024;SDS011;501;48.214;11.350;2024-02-21T08:36:34;1.17;;;0.83;;
1024;SDS011;501;48.214;11.350;2024-02-21T08:39:01;2.70;;;1.10;;
1024;SDS011;501;48.214;11.350;2024-02-21T08:41:33;2.17;;;1.40;;
1024;SDS011;501;48.214;11.350;2024-02-21T08:43:59;1.10;;;1.10;;
1024;SDS011;501;48.214;11.350;2024-02-21T08:46:26;0.83;;;0.70;;
1024;SDS011;501;48.214;11.350;2024-02-21T08:48:52;0.60;;;0.60;;
1024;SDS011;501;48.214;11.350;2024-02-21T08:51:18;1.20;;;1.10;;
1024;SDS011;501;48.214;11.350;2024-02-21T08:53:45;3.70;;;1.57;;
1024;SDS011;501;48.214;11.350;2024-02-21T08:56:10;1.73;;;1.07;;
1024;SDS011;501;48.214;11.350;2024-02-21T08:58:36;0.90;;;0.80;;
1024;SDS011;501;48.214;11.350;2024-02-21T09:01:03;1.63;;;1.30;;
1024;SDS011;501;48.214;11.350;2024-02-21T09:03:31;3.77;;;1.10;;
1024;SDS011;501;48.214;11.350;2024-02-21T09:05:57;1.33;;;0.90;;
1024;SDS011;501;48.214;11.350;2024-02-21T09:08:24;1.80;;;1.23;;
1024;SDS011;501;48.214;11.350;2024-02-21T09:10:50;3.87;;;1.00;;
1024;SDS011;501;48.214;11.350;2024-02-21T09:13:15;1.23;;;0.90;;
1024;SDS011;501;48.214;11.350;2024-02-21T09:15:42;2.23;;;0.80;;
1024;SDS011;501;48.214;11.350;2024-02-21T09:18:07;1.33;;;0.80;;
1024;SDS011;501;48.214;11.350;2024-02-21T09:20:33;0.53;;;0.50;;
1024;SDS011;501;48.214;11.350;2024-02-21T09:22:59;0.60;;;0.60;;
1024;SDS011;501;48.214;11.350;2024-02-21T09:25:24;0.60;;;0.60;;
1024;SDS011;501;48.214;11.350;2024-02-21T09:27:50;0.57;;;0.50;;
1024;SDS011;501;48.214;11.350;2024-02-21T09:30:19;3.40;;;0.60;;
1024;SDS011;501;48.214;11.350;2024-02-21T09:32:45;1.10;;;0.73;;
1024;SDS011;501;48.214;11.350;2024-02-21T09:35:11;0.60;;;0.60;;
1024;SDS011;501;48.214;11.350;2024-02-21T09:37:37;0.53;;;0.50;;
1024;SDS011;501;48.214;11.350;2024-02-21T09:40:04;0.40;;;0.40;;
1024;SDS011;501;48.214;11.350;2024-02-21T09:42:37;0.60;;;0.53;;
1024;SDS011;501;48.214;11.350;2024-02-21T09:45:07;1.07;;;0.53;;
1024;SDS011;501;48.214;11.350;2024-02-21T09:50:13;0.60;;;0.40;;
1024;SDS011;501;48.214;11.350;2024-02-21T09:52:40;0.63;;;0.47;;
1024;SDS011;501;48.214;11.350;2024-02-21T09:55:07;0.70;;;0.40;;
1024;SDS011;501;48.214;11.350;2024-02-21T09:57:35;1.37;;;0.40;;
1024;SDS011;501;48.214;11.350;2024-02-21T10:00:02;0.60;;;0.60;;
1024;SDS011;501;48.214;11.350;2024-02-21T10:02:32;0.97;;;0.40;;
1024;SDS011;501;48.214;11.350;2024-02-21T10:04:58;0.60;;;0.50;;
1024;SDS011;501;48.214;11.350;2024-02-21T10:07:24;1.80;;;0.70;;
1024;SDS011;501;48.214;11.350;2024-02-21T10:10:00;0.70;;;0.50;;
1024;SDS011;501;48.214;11.350;2024-02-21T10:12:29;0.70;;;0.70;;
1024;SDS011;501;48.214;11.350;2024-02-21T10:15:02;2.70;;;0.60;;
1024;SDS011;501;48.214;11.350;2024-02-21T10:17:28;1.70;;;0.47;;
1024;SDS011;501;48.214;11.350;2024-02-21T10:19:54;0.70;;;0.70;;
1024;SDS011;501;48.214;11.350;2024-02-21T10:22:20;2.30;;;0.80;;
1024;SDS011;501;48.214;11.350;2024-02-21T10:24:46;0.60;;;0.57;;
1024;SDS011;501;48.214;11.350;2024-02-21T10:27:12;1.73;;;0.60;;
1024;SDS011;501;48.214;11.350;2024-02-21T10:29:38;2.00;;;0.60;;
1024;SDS011;501;48.214;11.350;2024-02-21T10:32:08;0.50;;;0.50;;
1024;SDS011;501;48.214;11.350;2024-02-21T10:34:41;2.10;;;0.80;;
1024;SDS011;501;48.214;11.350;2024-02-21T10:37:08;0.70;;;0.70;;
1024;SDS011;501;48.214;11.350;2024-02-21T10:39:36;0.70;;;0.70;;
1024;SDS011;501;48.214;11.350;2024-02-21T10:42:05;0.47;;;0.47;;
1024;SDS011;501;48.214;11.350;2024-02-21T10:44:32;0.73;;;0.63;;
1024;SDS011;501;48.214;11.350;2024-02-21T10:47:05;0.83;;;0.50;;
1024;SDS011;501;48.214;11.350;2024-02-21T10:49:33;0.73;;;0.50;;
1024;SDS011;501;48.214;11.350;2024-02-21T10:55:09;1.17;;;0.70;;
1024;SDS011;501;48.214;11.350;2024-02-21T10:57:40;2.42;;;0.70;;
1024;SDS011;501;48.214;11.350;2024-02-21T11:00:07;2.13;;;1.00;;
1024;SDS011;501;48.214;11.350;2024-02-21T11:02:37;1.43;;;0.60;;
1024;SDS011;501;48.214;11.350;2024-02-21T11:05:04;1.50;;;0.60;;
1024;SDS011;501;48.214;11.350;2024-02-21T11:07:31;0.50;;;0.50;;
1024;SDS011;501;48.214;11.350;2024-02-21T11:10:00;0.77;;;0.50;;
1024;SDS011;501;48.214;11.350;2024-02-21T11:12:25;0.53;;;0.50;;
1024;SDS011;501;48.214;11.350;2024-02-21T11:14:52;1.17;;;0.67;;
1024;SDS011;501;48.214;11.350;2024-02-21T11:17:29;0.73;;;0.40;;
1024;SDS011;501;48.214;11.350;2024-02-21T11:19:55;1.53;;;0.60;;
1024;SDS011;501;48.214;11.350;2024-02-21T11:22:20;0.63;;;0.40;;
1024;SDS011;501;48.214;11.350;2024-02-21T11:24:47;0.50;;;0.40;;
1024;SDS011;501;48.214;11.350;2024-02-21T11:27:18;0.70;;;0.50;;
1024;SDS011;501;48.214;11.350;2024-02-21T11:29:49;0.73;;;0.50;;
1024;SDS011;501;48.214;11.350;2024-02-21T11:32:19;0.47;;;0.47;;
1024;SDS011;501;48.214;11.350;2024-02-21T11:37:28;0.90;;;0.40;;
1024;SDS011;501;48.214;11.350;2024-02-21T11:39:55;0.50;;;0.50;;
1024;SDS011;501;48.214;11.350;2024-02-21T11:42:21;0.80;;;0.53;;
1024;SDS011;501;48.214;11.350;2024-02-21T11:44:47;0.40;;;0.40;;
1024;SDS011;501;48.214;11.350;2024-02-21T11:47:14;0.90;;;0.60;;
1024;SDS011;501;48.214;11.350;2024-02-21T11:49:46;0.80;;;0.40;;
1024;SDS011;501;48.214;11.350;2024-02-21T11:52:19;0.90;;;0.40;;
1024;SDS011;501;48.214;11.350;2024-02-21T11:54:47;0.80;;;0.50;;
1024;SDS011;501;48.214;11.350;2024-02-21T11:57:13;0.50;;;0.33;;
1024;SDS011;501;48.214;11.350;2024-02-21T11:59:39;0.47;;;0.40;;
1024;SDS011;501;48.214;11.350;2024-02-21T12:02:05;0.43;;;0.43;;
1024;SDS011;501;48.214;11.350;2024-02-21T12:04:32;0.70;;;0.70;;
1024;SDS011;501;48.214;11.350;2024-02-21T12:06:58;0.83;;;0.60;;
1024;SDS011;501;48.214;11.350;2024-02-21T12:09:24;0.63;;;0.50;;
1024;SDS011;501;48.214;11.350;2024-02-21T12:11:57;0.60;;;0.57;;
1024;SDS011;501;48.214;11.350;2024-02-21T12:14:24;1.07;;;0.53;;
1024;SDS011;501;48.214;11.350;2024-02-21T12:16:52;0.70;;;0.40;;
1024;SDS011;501;48.214;11.350;2024-02-21T12:19:18;0.40;;;0.30;;
1024;SDS011;501;48.214;11.350;2024-02-21T12:21:43;0.90;;;0.40;;
1024;SDS011;501;48.214;11.350;2024-02-21T12:24:20;0.67;;;0.30;;
1024;SDS011;501;48.214;11.350;2024-02-21T12:26:50;0.70;;;0.50;;
1024;SDS011;501;48.214;11.350;2024-02-21T12:29:17;0.70;;;0.47;;
1024;SDS011;501;48.214;11.350;2024-02-21T12:31:43;0.70;;;0.40;;
1024;SDS011;501;48.214;11.350;2024-02-21T12:34:10;0.50;;;0.40;;
1024;SDS011;501;48.214;11.350;2024-02-21T12:36:36;1.10;;;0.60;;
1024;SDS011;501;48.214;11.350;2024-02-21T12:39:12;1.23;;;0.50;;
1024;SDS011;501;48.214;11.350;2024-02-21T12:41:40;0.50;;;0.37;;
1024;SDS011;501;48.214;11.350;2024-02-21T12:44:09;0.60;;;0.50;;
1024;SDS011;501;48.214;11.350;2024-02-21T12:46:36;0.70;;;0.60;;
1024;SDS011;501;48.214;11.350;2024-02-21T12:49:02;0.30;;;0.30;;
1024;SDS011;501;48.214;11.350;2024-02-21T12:51:29;1.90;;;0.50;;
1024;SDS011;501;48.214;11.350;2024-02-21T12:53:56;0.80;;;0.50;;
1024;SDS011;501;48.214;11.350;2024-02-21T12:56:21;0.80;;;0.40;;
1024;SDS011;501;48.214;11.350;2024-02-21T12:58:47;0.87;;;0.53;;
1024;SDS011;501;48.214;11.350;2024-02-21T13:01:13;0.50;;;0.30;;
1024;SDS011;501;48.214;11.350;2024-02-21T13:03:38;1.40;;;0.40;;
1024;SDS011;501;48.214;11.350;2024-02-21T13:06:05;0.60;;;0.50;;
1024;SDS011;501;48.214;11.350;2024-02-21T13:08:33;0.57;;;0.57;;
1024;SDS011;501;48.214;11.350;2024-02-21T13:11:00;0.47;;;0.47;;
1024;SDS011;501;48.214;11.350;2024-02-21T13:13:26;2.30;;;0.90;;
1024;SDS011;501;48.214;11.350;2024-02-21T13:15:52;0.63;;;0.63;;
1024;SDS011;501;48.214;11.350;2024-02-21T13:18:17;2.20;;;0.50;;
1024;SDS011;501;48.214;11.350;2024-02-21T13:20:43;0.47;;;0.37;;
1024;SDS011;501;48.214;11.350;2024-02-21T13:23:09;0.80;;;0.40;;
1024;SDS011;501;48.214;11.350;2024-02-21T13:25:34;0.53;;;0.53;;
1024;SDS011;501;48.214;11.350;2024-02-21T13:28:00;0.37;;;0.30;;
1024;SDS011;501;48.214;11.350;2024-02-21T13:30:26;0.60;;;0.50;;
1024;SDS011;501;48.214;11.350;2024-02-21T13:32:52;0.70;;;0.57;;
1024;SDS011;501;48.214;11.350;2024-02-21T13:35:19;0.30;;;0.30;;
1024;SDS011;501;48.214;11.350;2024-02-21T13:37:45;0.33;;;0.30;;
1024;SDS011;501;48.214;11.350;2024-02-21T13:40:11;0.80;;;0.40;;
1024;SDS011;501;48.214;11.350;2024-02-21T13:42:38;0.67;;;0.53;;
1024;SDS011;501;48.214;11.350;2024-02-21T13:45:04;1.33;;;0.47;;
1024;SDS011;501;48.214;11.350;2024-02-21T13:47:32;0.80;;;0.40;;
1024;SDS011;501;48.214;11.350;2024-02-21T13:50:04;0.60;;;0.50;;
1024;SDS011;501;48.214;11.350;2024-02-21T13:52:34;0.50;;;0.50;;
1024;SDS011;501;48.214;11.350;2024-02-21T13:54:59;0.87;;;0.60;;
1024;SDS011;501;48.214;11.350;2024-02-21T13:57:25;0.70;;;0.50;;
1024;SDS011;501;48.214;11.350;2024-02-21T13:59:51;2.83;;;0.43;;
1024;SDS011;501;48.214;11.350;2024-02-21T14:02:16;1.77;;;0.47;;
1024;SDS011;501;48.214;11.350;2024-02-21T14:04:43;0.53;;;0.40;;
1024;SDS011;501;48.214;11.350;2024-02-21T14:07:08;1.30;;;0.53;;
1024;SDS011;501;48.214;11.350;2024-02-21T14:09:34;1.30;;;0.40;;
1024;SDS011;501;48.214;11.350;2024-02-21T14:12:01;0.47;;;0.40;;
1024;SDS011;501;48.214;11.350;2024-02-21T14:14:27;0.50;;;0.30;;
1024;SDS011;501;48.214;11.350;2024-02-21T14:16:53;0.50;;;0.40;;
1024;SDS011;501;48.214;11.350;2024-02-21T14:19:18;0.77;;;0.40;;
1024;SDS011;501;48.214;11.350;2024-02-21T14:21:44;0.73;;;0.47;;
1024;SDS011;501;48.214;11.350;2024-02-21T14:24:11;2.00;;;0.60;;
1024;SDS011;501;48.214;11.350;2024-02-21T14:26:37;0.60;;;0.43;;
1024;SDS011;501;48.214;11.350;2024-02-21T14:29:04;0.90;;;0.60;;
1024;SDS011;501;48.214;11.350;2024-02-21T14:31:32;1.00;;;0.60;;
1024;SDS011;501;48.214;11.350;2024-02-21T14:33:58;0.70;;;0.50;;
1024;SDS011;501;48.214;11.350;2024-02-21T14:36:25;0.50;;;0.47;;
1024;SDS011;501;48.214;11.350;2024-02-21T14:38:51;0.57;;;0.40;;
1024;SDS011;501;48.214;11.350;2024-02-21T14:41:18;0.70;;;0.40;;
1024;SDS011;501;48.214;11.350;2024-02-21T14:43:43;0.50;;;0.50;;
1024;SDS011;501;48.214;11.350;2024-02-21T14:46:09;0.53;;;0.37;;
1024;SDS011;501;48.214;11.350;2024-02-21T14:48:37;0.60;;;0.40;;
1024;SDS011;501;48.214;11.350;2024-02-21T14:51:03;1.20;;;0.50;;
1024;SDS011;501;48.214;11.350;2024-02-21T14:53:29;1.60;;;0.50;;
1024;SDS011;501;48.214;11.350;2024-02-21T14:55:55;1.03;;;0.40;;
1024;SDS011;501;48.214;11.350;2024-02-21T14:58:22;2.67;;;0.40;;
1024;SDS011;501;48.214;11.350;2024-02-21T15:00:49;0.80;;;0.50;;
1024;SDS011;501;48.214;11.350;2024-02-21T15:03:18;1.30;;;0.40;;
1024;SDS011;501;48.214;11.350;2024-02-21T15:05:46;0.70;;;0.70;;
1024;SDS011;501;48.214;11.350;2024-02-21T15:08:12;2.40;;;0.70;;
1024;SDS011;501;48.214;11.350;2024-02-21T15:10:41;0.77;;;0.60;;
1024;SDS011;501;48.214;11.350;2024-02-21T15:13:07;2.20;;;0.50;;
1024;SDS011;501;48.214;11.350;2024-02-21T15:15:33;0.77;;;0.43;;
1024;SDS011;501;48.214;11.350;2024-02-21T15:17:59;0.73;;;0.47;;
1024;SDS011;501;48.214;11.350;2024-02-21T15:20:24;0.83;;;0.63;;